createdAt,value
2018-05-14T00:04:29.334Z,74.97
2018-05-14T00:09:34.237Z,74.73
2018-05-14T00:14:38.444Z,75.28
2018-05-14T00:19:42.533Z,78.27
2018-05-14T00:24:49.488Z,78.18
2018-05-14T00:29:54.752Z,78.10
2018-05-14T00:34:58.775Z,83.77
2018-05-14T00:40:03.468Z,84.30
2018-05-14T00:45:07.353Z,81.87
2018-05-14T00:50:12.171Z,84.03
2018-05-14T00:55:18.517Z,83.80
2018-05-14T01:05:39.531Z,85.38
2018-05-14T01:10:49.558Z,83.23
2018-05-14T01:15:55.643Z,80.63
2018-05-14T01:21:01.154Z,87.00
2018-05-14T01:26:04.434Z,86.10
2018-05-14T01:31:08.905Z,88.63
2018-05-14T01:36:14.517Z,84.60
2018-05-14T01:41:23.268Z,86.73
2018-05-14T01:46:30.068Z,84.90
2018-05-14T01:51:34.715Z,85.30
2018-05-14T01:56:38.369Z,86.63
2018-05-14T02:01:46.308Z,86.67
2018-05-14T02:06:54.579Z,83.50
2018-05-14T02:11:59.346Z,88.40
2018-05-14T02:17:03.965Z,88.43
2018-05-14T02:22:10.111Z,86.00
2018-05-14T02:32:34.116Z,86.97
2018-05-14T02:37:51.762Z,83.73
2018-05-14T02:48:19.739Z,83.13
2018-05-14T02:53:24.975Z,83.87
2018-05-14T02:58:29.110Z,81.30
2018-05-14T03:03:35.298Z,81.00
2018-05-14T03:14:08.693Z,79.00
2018-05-14T03:19:22.361Z,75.10
2018-05-14T03:24:33.966Z,77.70
2018-05-14T03:29:48.556Z,73.27
2018-05-14T03:34:56.050Z,76.73
2018-05-14T03:40:12.071Z,74.83
2018-05-14T03:50:55.103Z,73.30
2018-05-14T03:56:11.589Z,73.53
2018-05-14T04:01:42.859Z,75.40
2018-05-14T04:12:57.979Z,73.37
2018-05-14T04:18:39.997Z,75.10
2018-05-14T04:23:53.700Z,74.60
2018-05-14T04:34:32.811Z,78.43
2018-05-14T04:45:04.728Z,76.43
2018-05-14T04:50:38.686Z,75.07
2018-05-14T05:01:34.472Z,75.90
2018-05-14T05:12:43.782Z,75.50
2018-05-14T05:17:47.300Z,98.37
2018-05-14T05:22:50.473Z,73.87
2018-05-14T05:27:54.640Z,75.40
2018-05-14T05:32:57.762Z,73.47
2018-05-14T05:38:01.148Z,71.13
2018-05-14T05:43:04.958Z,72.83
2018-05-14T05:48:09.401Z,69.87
2018-05-14T05:53:14.051Z,68.20
2018-05-14T05:58:17.229Z,68.47
2018-05-14T06:03:21.085Z,69.37
2018-05-14T06:08:25.407Z,64.30
2018-05-14T06:13:29.834Z,69.00
2018-05-14T06:18:33.318Z,69.73
2018-05-14T06:23:36.801Z,66.70
2018-05-14T06:28:39.893Z,68.67
2018-05-14T06:33:42.987Z,69.20
2018-05-14T06:38:46.862Z,61.07
2018-05-14T06:43:49.964Z,63.70
2018-05-14T06:48:53.855Z,62.60
2018-05-14T06:53:56.953Z,65.33
2018-05-14T06:59:01.498Z,61.13
2018-05-14T07:04:06.103Z,61.87
2018-05-14T07:09:10.705Z,62.17
2018-05-14T07:14:14.203Z,56.97
2018-05-14T07:19:18.182Z,60.57
2018-05-14T07:24:21.150Z,60.50
2018-05-14T07:29:24.251Z,60.90
2018-05-14T07:34:27.361Z,59.83
2018-05-14T07:39:31.237Z,61.17
2018-05-14T07:44:34.351Z,61.53
2018-05-14T07:49:38.781Z,59.60
2018-05-14T07:54:42.286Z,56.93
2018-05-14T07:59:46.169Z,56.70
2018-05-14T08:04:50.397Z,55.97
2018-05-14T08:09:54.339Z,55.13
2018-05-14T08:14:58.349Z,57.47
2018-05-14T08:20:01.528Z,55.73
2018-05-14T08:25:04.667Z,56.87
2018-05-14T08:30:08.900Z,56.47
2018-05-14T08:35:12.773Z,54.57
2018-05-14T08:40:17.213Z,54.40
2018-05-14T08:45:21.834Z,55.00
2018-05-14T08:50:25.331Z,53.97
2018-05-14T08:55:29.201Z,52.57
2018-05-14T09:00:32.289Z,52.70
2018-05-14T09:05:35.383Z,52.30
2018-05-14T09:10:39.236Z,49.63
2018-05-14T09:15:43.453Z,52.40
2018-05-14T09:20:46.561Z,51.27
2018-05-14T09:25:50.054Z,52.00
2018-05-14T09:30:53.156Z,50.63
2018-05-14T09:35:57.038Z,50.40
2018-05-14T09:41:00.906Z,49.57
2018-05-14T09:46:04.790Z,49.67
2018-05-14T09:51:10.204Z,48.58
2018-05-14T09:56:13.326Z,45.90
2018-05-14T10:01:16.475Z,48.60
2018-05-14T10:06:19.603Z,48.17
2018-05-14T10:11:22.707Z,47.67
2018-05-14T10:16:26.847Z,48.20
2018-05-14T10:21:30.714Z,47.47
2018-05-14T10:26:35.591Z,47.60
2018-05-14T10:31:38.750Z,48.50
2018-05-14T10:36:43.199Z,45.57
2018-05-14T10:41:46.290Z,48.23
2018-05-14T10:46:49.471Z,49.63
2018-05-14T10:51:53.606Z,48.87
2018-05-14T10:56:58.213Z,50.00
2018-05-14T11:02:01.294Z,51.10
2018-05-14T11:07:04.770Z,50.80
2018-05-14T11:12:07.891Z,48.80
2018-05-14T11:17:10.979Z,51.83
2018-05-14T11:22:15.586Z,52.67
2018-05-14T11:27:18.688Z,52.53
2018-05-14T11:32:21.781Z,50.90
2018-05-14T11:37:24.888Z,52.17
2018-05-14T11:42:28.747Z,53.50
2018-05-14T11:47:34.352Z,54.60
2018-05-14T11:52:37.457Z,52.53
2018-05-14T11:57:40.672Z,55.07
2018-05-14T12:02:44.223Z,53.60
2018-05-14T12:07:48.413Z,53.67
2018-05-14T12:12:52.266Z,55.90
2018-05-14T12:17:56.853Z,53.90
2018-05-14T12:22:59.939Z,55.87
2018-05-14T12:28:03.418Z,54.70
2018-05-14T12:33:06.907Z,57.50
2018-05-14T12:38:09.985Z,58.07
2018-05-14T12:43:14.440Z,57.80
2018-05-14T12:48:17.542Z,57.13
2018-05-14T12:53:21.408Z,57.03
2018-05-14T12:58:24.893Z,61.60
2018-05-14T13:03:27.982Z,60.40
2018-05-14T13:08:31.833Z,60.67
2018-05-14T13:13:35.702Z,59.43
2018-05-14T13:18:39.433Z,63.13
2018-05-14T13:23:44.075Z,62.60
2018-05-14T13:28:47.223Z,58.43
2018-05-14T13:33:51.082Z,61.40
2018-05-14T13:38:55.328Z,57.93
2018-05-14T13:43:58.409Z,59.67
2018-05-14T13:49:02.109Z,56.47
2018-05-14T13:54:05.206Z,52.80
2018-05-14T13:59:09.111Z,49.07
2018-05-14T14:04:12.245Z,38.40
2018-05-14T14:09:15.762Z,45.00
2018-05-14T14:14:18.855Z,49.70
2018-05-14T14:19:21.957Z,43.47
2018-05-14T14:24:25.070Z,29.13
2018-05-14T14:29:28.920Z,23.00
2018-05-14T14:34:33.155Z,15.10
2018-05-14T14:39:36.256Z,11.67
2018-05-14T14:44:39.349Z,10.73
2018-05-14T14:49:42.845Z,9.03
2018-05-14T14:54:47.977Z,9.03
2018-05-14T14:59:51.458Z,8.57
2018-05-14T15:04:56.051Z,8.30
2018-05-14T15:09:59.981Z,8.13
2018-05-14T15:15:03.831Z,9.00
2018-05-14T15:20:08.111Z,8.13
2018-05-14T15:25:11.120Z,5.97
2018-05-14T15:30:14.633Z,6.50
2018-05-14T15:35:19.149Z,6.83
2018-05-14T15:40:22.243Z,7.20
2018-05-14T15:45:25.342Z,6.80
2018-05-14T15:50:28.835Z,6.47
2018-05-14T15:55:32.684Z,5.70
2018-05-14T16:00:36.548Z,4.90
2018-05-14T16:05:39.635Z,4.03
2018-05-14T16:10:42.735Z,3.60
2018-05-14T16:15:47.314Z,3.70
2018-05-14T16:20:50.523Z,3.43
2018-05-14T16:25:53.507Z,3.60
2018-05-14T16:30:56.593Z,3.50
2018-05-14T16:35:59.971Z,3.23
2018-05-14T16:41:03.054Z,3.30
2018-05-14T16:46:06.144Z,3.40
2018-05-14T16:51:09.237Z,3.90
2018-05-14T16:56:12.705Z,3.70
2018-05-14T17:01:15.796Z,3.60
2018-05-14T17:06:18.889Z,3.30
2018-05-14T17:11:21.978Z,3.60
2018-05-14T17:16:26.212Z,3.50
2018-05-14T17:21:30.093Z,3.80
2018-05-14T17:26:35.728Z,3.50
2018-05-14T17:31:38.824Z,3.50
2018-05-14T17:36:42.666Z,3.47
2018-05-14T17:41:45.756Z,3.30
2018-05-14T17:46:48.847Z,3.43
2018-05-14T17:51:52.784Z,3.60
2018-05-14T17:56:56.634Z,3.73
2018-05-14T18:02:00.185Z,3.37
2018-05-14T18:07:03.678Z,4.00
2018-05-14T18:12:07.890Z,3.60
2018-05-14T18:17:14.454Z,3.80
2018-05-14T18:22:23.579Z,3.93
2018-05-14T18:27:31.806Z,4.03
2018-05-14T18:32:35.623Z,4.13
2018-05-14T18:37:39.106Z,4.37
2018-05-14T18:42:42.189Z,4.27
2018-05-14T18:47:46.046Z,4.53
2018-05-14T18:52:50.510Z,4.17
2018-05-14T18:57:55.158Z,4.13
2018-05-14T19:02:59.625Z,4.50
2018-05-14T19:08:02.715Z,4.67
2018-05-14T19:13:05.979Z,4.80
2018-05-14T19:18:09.470Z,4.50
2018-05-14T19:23:19.268Z,4.93
2018-05-14T19:28:28.349Z,5.03
2018-05-14T19:33:38.484Z,4.70
2018-05-14T19:38:42.707Z,4.30
2018-05-14T19:43:46.177Z,4.67
2018-05-14T19:48:50.405Z,5.10
2018-05-14T19:53:54.656Z,5.53
2018-05-14T19:58:59.687Z,5.33
2018-05-14T20:04:03.686Z,5.60
2018-05-14T20:09:07.152Z,5.57
2018-05-14T20:14:11.590Z,5.30
2018-05-14T20:19:16.041Z,4.90
2018-05-14T20:24:19.890Z,5.40
2018-05-14T20:29:23.751Z,5.70
2018-05-14T20:34:28.491Z,6.10
2018-05-14T20:39:32.365Z,5.13
2018-05-14T20:44:36.826Z,5.83
2018-05-14T20:49:41.100Z,6.33
2018-05-14T20:54:44.945Z,5.90
2018-05-14T20:59:48.524Z,6.27
2018-05-14T21:04:52.299Z,7.10
2018-05-14T21:09:55.397Z,6.30
2018-05-14T21:14:58.870Z,6.20
2018-05-14T21:20:02.723Z,6.00
2018-05-14T21:25:05.809Z,5.70
2018-05-14T21:30:08.913Z,5.53
2018-05-14T21:35:12.006Z,5.47
2018-05-14T21:40:15.082Z,5.63
2018-05-14T21:45:19.158Z,5.57
2018-05-14T21:50:22.281Z,6.07
2018-05-14T21:55:25.334Z,5.37
2018-05-14T22:00:29.552Z,5.40
2018-05-14T22:05:34.025Z,5.50
2018-05-14T22:10:37.105Z,6.00
2018-05-14T22:15:40.602Z,5.90
2018-05-14T22:20:43.706Z,6.47
2018-05-14T22:25:48.349Z,5.40
2018-05-14T22:30:52.195Z,6.03
2018-05-14T22:35:56.650Z,5.73
2018-05-14T22:41:00.142Z,5.93
2018-05-14T22:46:03.245Z,5.93
2018-05-14T22:51:06.326Z,5.75
2018-05-14T22:56:09.451Z,5.77
2018-05-14T23:01:13.673Z,6.20
2018-05-14T23:06:17.525Z,5.80
2018-05-14T23:11:20.628Z,6.20
2018-05-14T23:16:25.064Z,6.50
2018-05-14T23:21:28.939Z,6.68
2018-05-14T23:26:32.014Z,6.40
2018-05-14T23:31:35.109Z,6.10
2018-05-14T23:36:38.970Z,6.00
2018-05-14T23:41:43.202Z,6.80
2018-05-14T23:46:47.645Z,6.50
2018-05-14T23:51:52.070Z,6.47
2018-05-14T23:56:55.925Z,6.12
